sensor_id;sensor_type;location;lat;lon;timestamp;temperature;humidity
1123;DHT22;548;48.778;9.252;2023-02-01T10:15:43;8.80;99.90
1123;DHT22;548;48.778;9.252;2023-02-01T10:18:28;8.90;99.90
1123;DHT22;548;48.778;9.252;2023-02-01T10:21:01;8.70;99.90
1123;DHT22;548;48.778;9.252;2023-02-01T10:23:45;8.70;99.90
1123;DHT22;548;48.778;9.252;2023-02-01T10:26:19;8.80;99.90
1123;DHT22;548;48.778;9.252;2023-02-01T10:28:50;9.00;99.90
1123;DHT22;548;48.778;9.252;2023-02-01T10:31:18;9.20;99.90
1123;DHT22;548;48.778;9.252;2023-02-01T10:33:46;9.20;99.90
1123;DHT22;548;48.778;9.252;2023-02-01T10:36:17;9.20;99.90
1123;DHT22;548;48.778;9.252;2023-02-01T10:38:46;9.20;99.90
1123;DHT22;548;48.778;9.252;2023-02-01T10:41:15;9.10;99.90
1123;DHT22;548;48.778;9.252;2023-02-01T10:43:44;9.00;99.90
1123;DHT22;548;48.778;9.252;2023-02-01T10:46:14;9.00;99.90
1123;DHT22;548;48.778;9.252;2023-02-01T10:48:42;8.80;99.90
1123;DHT22;548;48.778;9.252;2023-02-01T10:51:14;8.90;99.90
1123;DHT22;548;48.778;9.252;2023-02-01T10:53:46;9.00;99.90
1123;DHT22;548;48.778;9.252;2023-02-01T10:56:22;9.10;99.90
1123;DHT22;548;48.778;9.252;2023-02-01T10:58:49;9.20;99.90
1123;DHT22;548;48.778;9.252;2023-02-01T11:01:20;9.30;99.90
1123;DHT22;548;48.778;9.252;2023-02-01T11:03:53;9.20;99.90
1123;DHT22;548;48.778;9.252;2023-02-01T11:06:27;9.30;99.90
1123;DHT22;548;48.778;9.252;2023-02-01T11:08:56;9.30;99.90
1123;DHT22;548;48.778;9.252;2023-02-01T11:11:24;9.20;99.90
1123;DHT22;548;48.778;9.252;2023-02-01T11:13:53;9.20;99.90
1123;DHT22;548;48.778;9.252;2023-02-01T11:16:29;9.30;99.90
1123;DHT22;548;48.778;9.252;2023-02-01T11:18:58;9.20;99.90
1123;DHT22;548;48.778;9.252;2023-02-01T11:21:25;9.10;99.90
1123;DHT22;548;48.778;9.252;2023-02-01T11:23:52;9.00;99.90
1123;DHT22;548;48.778;9.252;2023-02-01T11:26:21;9.20;99.90
1123;DHT22;548;48.778;9.252;2023-02-01T11:28:53;9.30;99.90
1123;DHT22;548;48.778;9.252;2023-02-01T11:31:22;9.20;99.90
1123;DHT22;548;48.778;9.252;2023-02-01T11:33:51;9.10;99.90
1123;DHT22;548;48.778;9.252;2023-02-01T11:36:23;8.90;99.90
1123;DHT22;548;48.778;9.252;2023-02-01T11:38:54;8.80;99.90
1123;DHT22;548;48.778;9.252;2023-02-01T11:41:33;8.90;99.90
1123;DHT22;548;48.778;9.252;2023-02-01T11:44:11;9.00;99.90
1123;DHT22;548;48.778;9.252;2023-02-01T11:46:43;9.00;99.90
1123;DHT22;548;48.778;9.252;2023-02-01T11:49:21;9.20;99.90
1123;DHT22;548;48.778;9.252;2023-02-01T11:52:03;9.30;99.90
1123;DHT22;548;48.778;9.252;2023-02-01T11:54:46;9.30;99.90
1123;DHT22;548;48.778;9.252;2023-02-01T11:57:30;9.40;99.90
1123;DHT22;548;48.778;9.252;2023-02-01T12:00:10;9.30;99.90
1123;DHT22;548;48.778;9.252;2023-02-01T12:02:55;9.40;99.90
1123;DHT22;548;48.778;9.252;2023-02-01T12:05:33;9.50;99.90
1123;DHT22;548;48.778;9.252;2023-02-01T12:08:14;9.80;99.90
1123;DHT22;548;48.778;9.252;2023-02-01T12:10:53;10.10;98.30
1123;DHT22;548;48.778;9.252;2023-02-01T12:13:32;9.90;98.30
1123;DHT22;548;48.778;9.252;2023-02-01T12:16:11;9.80;98.70
1123;DHT22;548;48.778;9.252;2023-02-01T12:18:58;9.80;99.10
1123;DHT22;548;48.778;9.252;2023-02-01T12:21:46;9.70;99.20
1123;DHT22;548;48.778;9.252;2023-02-01T12:24:30;9.40;98.80
1123;DHT22;548;48.778;9.252;2023-02-01T12:27:10;9.40;99.60
1123;DHT22;548;48.778;9.252;2023-02-01T12:30:03;9.30;99.40
1123;DHT22;548;48.778;9.252;2023-02-01T12:32:48;9.10;99.40
1123;DHT22;548;48.778;9.252;2023-02-01T12:35:34;9.10;99.60
1123;DHT22;548;48.778;9.252;2023-02-01T12:38:13;9.00;99.90
1123;DHT22;548;48.778;9.252;2023-02-01T12:40:53;9.00;99.90
1123;DHT22;548;48.778;9.252;2023-02-01T12:43:33;9.00;99.90
1123;DHT22;548;48.778;9.252;2023-02-01T12:46:05;9.00;99.90
1123;DHT22;548;48.778;9.252;2023-02-01T12:48:36;8.90;99.90
1123;DHT22;548;48.778;9.252;2023-02-01T12:51:08;8.80;99.90
1123;DHT22;548;48.778;9.252;2023-02-01T12:53:44;8.80;99.90
1123;DHT22;548;48.778;9.252;2023-02-01T12:56:16;8.80;99.90
1123;DHT22;548;48.778;9.252;2023-02-01T12:58:47;8.60;99.90
1123;DHT22;548;48.778;9.252;2023-02-01T13:01:20;8.60;99.90
1123;DHT22;548;48.778;9.252;2023-02-01T13:03:54;8.60;99.90
1123;DHT22;548;48.778;9.252;2023-02-01T13:06:26;8.50;99.90
1123;DHT22;548;48.778;9.252;2023-02-01T13:08:58;8.40;99.90
1123;DHT22;548;48.778;9.252;2023-02-01T13:11:29;8.20;99.90
1123;DHT22;548;48.778;9.252;2023-02-01T13:14:01;8.10;99.90
1123;DHT22;548;48.778;9.252;2023-02-01T13:16:32;8.00;99.90
1123;DHT22;548;48.778;9.252;2023-02-01T13:19:05;8.10;99.90
1123;DHT22;548;48.778;9.252;2023-02-01T13:21:40;8.20;99.90
1123;DHT22;548;48.778;9.252;2023-02-01T13:24:26;8.30;99.90
1123;DHT22;548;48.778;9.252;2023-02-01T13:26:54;8.40;99.90
1123;DHT22;548;48.778;9.252;2023-02-01T13:29:22;8.70;99.90
1123;DHT22;548;48.778;9.252;2023-02-01T13:32:12;8.90;99.90
1123;DHT22;548;48.778;9.252;2023-02-01T13:35:08;9.00;99.90
1123;DHT22;548;48.778;9.252;2023-02-01T13:38:03;9.00;99.90
1123;DHT22;548;48.778;9.252;2023-02-01T13:40:40;8.90;99.90
1123;DHT22;548;48.778;9.252;2023-02-01T13:43:12;8.90;99.90
1123;DHT22;548;48.778;9.252;2023-02-01T13:45:45;8.90;99.90
1123;DHT22;548;48.778;9.252;2023-02-01T13:48:20;8.90;99.90
1123;DHT22;548;48.778;9.252;2023-02-01T13:50:51;8.80;99.90
1123;DHT22;548;48.778;9.252;2023-02-01T13:53:25;8.70;99.90
1123;DHT22;548;48.778;9.252;2023-02-01T13:55:57;8.60;99.90
1123;DHT22;548;48.778;9.252;2023-02-01T13:58:30;8.50;99.90
1123;DHT22;548;48.778;9.252;2023-02-01T14:01:32;8.40;99.90
1123;DHT22;548;48.778;9.252;2023-02-01T14:04:00;8.20;99.90
1123;DHT22;548;48.778;9.252;2023-02-01T14:06:44;8.00;99.90
1123;DHT22;548;48.778;9.252;2023-02-01T14:09:30;8.00;99.90
1123;DHT22;548;48.778;9.252;2023-02-01T14:15:24;8.00;99.90
1123;DHT22;548;48.778;9.252;2023-02-01T14:17:51;8.20;99.90
1123;DHT22;548;48.778;9.252;2023-02-01T14:20:46;8.40;99.90
1123;DHT22;548;48.778;9.252;2023-02-01T14:23:23;8.40;99.90
1123;DHT22;548;48.778;9.252;2023-02-01T14:26:17;8.40;99.90
1123;DHT22;548;48.778;9.252;2023-02-01T14:29:01;8.50;99.90
1123;DHT22;548;48.778;9.252;2023-02-01T14:31:39;8.60;99.90
1123;DHT22;548;48.778;9.252;2023-02-01T14:34:19;8.60;99.90
1123;DHT22;548;48.778;9.252;2023-02-01T14:36:50;8.40;99.90
1123;DHT22;548;48.778;9.252;2023-02-01T14:39:31;8.50;99.90
1123;DHT22;548;48.778;9.252;2023-02-01T14:42:03;8.60;99.90
1123;DHT22;548;48.778;9.252;2023-02-01T14:44:36;8.50;99.90
1123;DHT22;548;48.778;9.252;2023-02-01T14:50:07;8.50;99.90
1123;DHT22;548;48.778;9.252;2023-02-01T14:52:39;8.30;99.90
1123;DHT22;548;48.778;9.252;2023-02-01T14:55:12;8.30;99.90
1123;DHT22;548;48.778;9.252;2023-02-01T14:57:42;8.30;99.90
1123;DHT22;548;48.778;9.252;2023-02-01T15:00:20;8.30;99.90
1123;DHT22;548;48.778;9.252;2023-02-01T15:02:48;8.40;99.90
1123;DHT22;548;48.778;9.252;2023-02-01T15:05:29;8.30;99.90
1123;DHT22;548;48.778;9.252;2023-02-01T15:08:04;8.30;99.90
1123;DHT22;548;48.778;9.252;2023-02-01T15:10:39;8.30;99.90
1123;DHT22;548;48.778;9.252;2023-02-01T15:13:19;8.20;99.90
1123;DHT22;548;48.778;9.252;2023-02-01T15:16:00;8.20;99.90
1123;DHT22;548;48.778;9.252;2023-02-01T15:18:27;8.10;99.90
1123;DHT22;548;48.778;9.252;2023-02-01T15:20:57;8.10;99.90
1123;DHT22;548;48.778;9.252;2023-02-01T15:23:23;8.00;99.90
1123;DHT22;548;48.778;9.252;2023-02-01T15:25:50;8.10;99.90
1123;DHT22;548;48.778;9.252;2023-02-01T15:28:18;8.10;99.90
1123;DHT22;548;48.778;9.252;2023-02-01T15:30:54;8.10;99.90
1123;DHT22;548;48.778;9.252;2023-02-01T15:33:21;8.20;99.90
1123;DHT22;548;48.778;9.252;2023-02-01T15:35:48;8.10;99.90
1123;DHT22;548;48.778;9.252;2023-02-01T15:38:34;8.00;99.90
1123;DHT22;548;48.778;9.252;2023-02-01T15:41:04;8.00;99.90
1123;DHT22;548;48.778;9.252;2023-02-01T15:43:35;8.00;99.90
1123;DHT22;548;48.778;9.252;2023-02-01T15:46:07;8.00;99.90
1123;DHT22;548;48.778;9.252;2023-02-01T15:48:38;8.00;99.90
1123;DHT22;548;48.778;9.252;2023-02-01T15:51:06;8.10;99.90
1123;DHT22;548;48.778;9.252;2023-02-01T15:53:37;8.10;99.90
1123;DHT22;548;48.778;9.252;2023-02-01T15:56:05;8.30;99.90
1123;DHT22;548;48.778;9.252;2023-02-01T15:58:33;8.20;99.90
1123;DHT22;548;48.778;9.252;2023-02-01T16:01:01;8.10;99.90
1123;DHT22;548;48.778;9.252;2023-02-01T16:03:34;8.20;99.90
1123;DHT22;548;48.778;9.252;2023-02-01T16:06:04;8.10;99.90
1123;DHT22;548;48.778;9.252;2023-02-01T16:08:32;8.10;99.90
1123;DHT22;548;48.778;9.252;2023-02-01T16:11:12;8.10;99.90
1123;DHT22;548;48.778;9.252;2023-02-01T16:13:42;8.00;99.90
1123;DHT22;548;48.778;9.252;2023-02-01T16:16:09;8.10;99.90
1123;DHT22;548;48.778;9.252;2023-02-01T16:18:39;8.00;99.90
1123;DHT22;548;48.778;9.252;2023-02-01T16:21:06;8.00;99.90
1123;DHT22;548;48.778;9.252;2023-02-01T16:23:33;8.10;99.90
1123;DHT22;548;48.778;9.252;2023-02-01T16:26:00;8.10;99.90
1123;DHT22;548;48.778;9.252;2023-02-01T16:28:27;8.10;99.90
1123;DHT22;548;48.778;9.252;2023-02-01T16:30:55;8.10;99.90
1123;DHT22;548;48.778;9.252;2023-02-01T16:33:23;8.00;99.90
1123;DHT22;548;48.778;9.252;2023-02-01T16:35:50;8.10;99.90
1123;DHT22;548;48.778;9.252;2023-02-01T16:38:19;8.00;99.90
1123;DHT22;548;48.778;9.252;2023-02-01T16:40:48;8.00;99.90
1123;DHT22;548;48.778;9.252;2023-02-01T16:43:17;8.00;99.90
1123;DHT22;548;48.778;9.252;2023-02-01T16:45:45;8.00;99.90
1123;DHT22;548;48.778;9.252;2023-02-01T16:48:19;7.90;99.90
1123;DHT22;548;48.778;9.252;2023-02-01T16:50:49;8.00;99.90
1123;DHT22;548;48.778;9.252;2023-02-01T16:53:17;8.00;99.90
1123;DHT22;548;48.778;9.252;2023-02-01T16:55:44;8.00;99.90
1123;DHT22;548;48.778;9.252;2023-02-01T16:58:13;7.90;99.90
1123;DHT22;548;48.778;9.252;2023-02-01T17:00:40;7.90;99.90
1123;DHT22;548;48.778;9.252;2023-02-01T17:03:09;7.80;99.90
1123;DHT22;548;48.778;9.252;2023-02-01T17:05:37;7.80;99.90
1123;DHT22;548;48.778;9.252;2023-02-01T17:08:05;7.70;99.90
1123;DHT22;548;48.778;9.252;2023-02-01T17:10:32;7.60;99.90
1123;DHT22;548;48.778;9.252;2023-02-01T17:13:00;7.60;99.90
1123;DHT22;548;48.778;9.252;2023-02-01T17:15:29;7.60;99.90
1123;DHT22;548;48.778;9.252;2023-02-01T17:17:59;7.60;99.90
1123;DHT22;548;48.778;9.252;2023-02-01T17:20:30;7.60;99.90
1123;DHT22;548;48.778;9.252;2023-02-01T17:22:59;7.60;99.90
1123;DHT22;548;48.778;9.252;2023-02-01T17:25:27;7.60;99.90
1123;DHT22;548;48.778;9.252;2023-02-01T17:27:55;7.60;99.90
1123;DHT22;548;48.778;9.252;2023-02-01T17:30:22;7.70;99.90
1123;DHT22;548;48.778;9.252;2023-02-01T17:32:49;7.70;99.90
1123;DHT22;548;48.778;9.252;2023-02-01T17:35:18;7.70;99.90
1123;DHT22;548;48.778;9.252;2023-02-01T17:37:47;7.70;99.90
1123;DHT22;548;48.778;9.252;2023-02-01T17:40:15;7.70;99.90
1123;DHT22;548;48.778;9.252;2023-02-01T17:42:42;7.70;99.90
1123;DHT22;548;48.778;9.252;2023-02-01T17:45:32;7.70;99.90
1123;DHT22;548;48.778;9.252;2023-02-01T17:48:00;7.70;99.90
1123;DHT22;548;48.778;9.252;2023-02-01T17:50:30;7.70;99.90
1123;DHT22;548;48.778;9.252;2023-02-01T17:53:00;7.70;99.90
1123;DHT22;548;48.778;9.252;2023-02-01T17:55:28;7.70;99.90
1123;DHT22;548;48.778;9.252;2023-02-01T17:57:55;7.60;99.90
